createdAt,value
2022-11-29T00:01:05.816Z,0.30
2022-11-29T00:03:33.312Z,0.30
2022-11-29T00:06:08.172Z,0.20
2022-11-29T00:08:36.148Z,0.20
2022-11-29T00:11:07.179Z,0.20
2022-11-29T00:13:34.355Z,0.30
2022-11-29T00:16:12.029Z,0.20
2022-11-29T00:18:38.789Z,0.20
2022-11-29T00:21:07.396Z,0.20
2022-11-29T00:23:35.046Z,0.20
2022-11-29T00:26:10.759Z,0.20
2022-11-29T00:28:37.516Z,0.20
2022-11-29T00:31:22.434Z,0.20
2022-11-29T00:33:49.511Z,0.20
2022-11-29T00:36:16.945Z,0.20
2022-11-29T00:38:44.098Z,0.20
2022-11-29T00:41:11.537Z,0.20
2022-11-29T00:43:38.365Z,0.20
2022-11-29T00:46:05.991Z,0.20
2022-11-29T00:48:32.775Z,0.20
2022-11-29T00:50:59.494Z,0.20
2022-11-29T00:53:26.151Z,0.30
2022-11-29T00:55:53.541Z,0.20
2022-11-29T00:58:21.054Z,0.30
2022-11-29T01:00:48.387Z,0.30
2022-11-29T01:03:16.522Z,0.30
2022-11-29T01:05:43.592Z,0.30
2022-11-29T01:08:11.483Z,0.20
2022-11-29T01:10:38.620Z,0.20
2022-11-29T01:13:05.334Z,0.30
2022-11-29T01:15:32.234Z,0.30
2022-11-29T01:17:58.986Z,0.30
2022-11-29T01:20:25.707Z,0.30
2022-11-29T01:22:52.451Z,0.30
2022-11-29T01:25:19.484Z,0.30
2022-11-29T01:27:46.431Z,0.30
2022-11-29T01:30:13.898Z,0.20
2022-11-29T01:32:41.806Z,0.30
2022-11-29T01:35:08.912Z,0.30
2022-11-29T01:37:35.688Z,0.30
2022-11-29T01:40:02.931Z,0.20
2022-11-29T01:42:29.557Z,0.20
2022-11-29T01:45:08.044Z,0.20
2022-11-29T01:47:41.440Z,0.20
2022-11-29T01:50:08.797Z,0.20
2022-11-29T01:52:35.626Z,0.20
2022-11-29T01:55:05.357Z,0.10
2022-11-29T01:57:34.640Z,0.10
2022-11-29T02:00:08.751Z,0.10
2022-11-29T02:03:03.973Z,0.20
2022-11-29T02:05:30.726Z,0.20
2022-11-29T02:07:59.094Z,0.20
2022-11-29T02:10:51.805Z,0.20
2022-11-29T02:13:42.592Z,0.20
2022-11-29T02:16:22.529Z,0.10
2022-11-29T02:19:18.330Z,0.20
2022-11-29T02:22:33.013Z,0.20
2022-11-29T02:25:35.743Z,0.20
2022-11-29T02:28:40.504Z,0.20
2022-11-29T02:31:30.533Z,0.20
2022-11-29T02:34:17.572Z,0.20
2022-11-29T02:36:55.352Z,0.20
2022-11-29T02:39:38.154Z,0.20
2022-11-29T02:42:29.452Z,0.20
2022-11-29T02:45:25.577Z,0.20
2022-11-29T02:48:03.280Z,0.20
2022-11-29T02:50:42.207Z,0.20
2022-11-29T02:53:17.906Z,0.20
2022-11-29T02:55:55.290Z,0.20
2022-11-29T02:58:55.977Z,0.20
2022-11-29T03:01:44.665Z,0.20
2022-11-29T03:04:26.169Z,0.20
2022-11-29T03:07:06.535Z,0.20
2022-11-29T03:09:46.991Z,0.20
2022-11-29T03:12:34.409Z,0.20
2022-11-29T03:15:31.470Z,0.30
2022-11-29T03:18:34.754Z,0.20
2022-11-29T03:21:22.485Z,0.20
2022-11-29T03:23:53.796Z,0.20
2022-11-29T03:26:30.736Z,0.20
2022-11-29T03:29:09.523Z,0.20
2022-11-29T03:31:50.150Z,0.20
2022-11-29T03:34:47.460Z,0.20
2022-11-29T03:37:28.022Z,0.20
2022-11-29T03:40:05.790Z,0.20
2022-11-29T03:42:39.661Z,0.20
2022-11-29T03:45:17.440Z,0.20
2022-11-29T03:48:10.699Z,0.30
2022-11-29T03:50:53.639Z,0.30
2022-11-29T03:53:28.934Z,0.30
2022-11-29T03:56:03.677Z,0.40
2022-11-29T03:58:40.667Z,0.30
2022-11-29T04:01:28.588Z,0.20
2022-11-29T04:03:58.368Z,0.20
2022-11-29T04:06:46.977Z,0.20
2022-11-29T04:09:38.229Z,0.20
2022-11-29T04:12:16.077Z,0.20
2022-11-29T04:14:45.610Z,0.20
2022-11-29T04:17:50.086Z,0.20
2022-11-29T04:20:45.451Z,0.20
2022-11-29T04:23:37.969Z,0.20
2022-11-29T04:26:34.963Z,0.20
2022-11-29T04:29:08.944Z,0.20
2022-11-29T04:31:58.007Z,0.30
2022-11-29T04:34:54.689Z,0.30
2022-11-29T04:37:49.386Z,0.30
2022-11-29T04:40:28.210Z,0.30
2022-11-29T04:43:29.502Z,0.30
2022-11-29T04:46:20.315Z,0.40
2022-11-29T04:48:53.315Z,0.30
2022-11-29T04:51:44.531Z,0.40
2022-11-29T04:54:26.258Z,0.30
2022-11-29T04:57:11.757Z,0.40
2022-11-29T04:59:53.530Z,0.40
2022-11-29T05:02:35.033Z,0.40
2022-11-29T05:05:14.436Z,0.40
2022-11-29T05:08:12.379Z,0.40
2022-11-29T05:11:02.420Z,0.40
2022-11-29T05:13:47.153Z,0.50
2022-11-29T05:16:32.786Z,0.50
2022-11-29T05:19:25.753Z,0.50
2022-11-29T05:22:26.254Z,0.50
2022-11-29T05:25:11.988Z,0.50
2022-11-29T05:28:07.062Z,0.60
2022-11-29T05:31:14.270Z,0.50
2022-11-29T05:34:05.278Z,0.50
2022-11-29T05:36:50.455Z,0.50
2022-11-29T05:39:43.843Z,0.50
2022-11-29T05:42:42.959Z,0.50
2022-11-29T05:45:28.623Z,0.50
2022-11-29T05:48:17.601Z,0.50
2022-11-29T05:51:09.657Z,0.50
2022-11-29T05:53:44.889Z,0.50
2022-11-29T05:56:23.524Z,0.60
2022-11-29T05:59:07.087Z,0.50
2022-11-29T06:01:54.394Z,0.60
2022-11-29T06:04:39.414Z,0.60
2022-11-29T06:07:32.736Z,0.60
2022-11-29T06:10:11.053Z,0.60
2022-11-29T06:12:38.678Z,0.60
2022-11-29T06:15:28.003Z,0.50
2022-11-29T06:18:02.944Z,0.50
2022-11-29T06:20:51.659Z,0.50
2022-11-29T06:23:47.147Z,0.50
2022-11-29T06:26:29.169Z,0.50
2022-11-29T06:29:20.313Z,0.50
2022-11-29T06:31:52.432Z,0.50
2022-11-29T06:34:41.999Z,0.40
2022-11-29T06:37:38.369Z,0.40
2022-11-29T06:40:09.614Z,0.40
2022-11-29T06:42:36.240Z,0.40
2022-11-29T06:45:03.667Z,0.40
2022-11-29T06:47:39.637Z,0.50
2022-11-29T06:50:54.426Z,0.50
2022-11-29T06:53:45.194Z,0.50
2022-11-29T06:56:20.813Z,0.50
2022-11-29T06:58:56.658Z,0.50
2022-11-29T07:01:36.908Z,0.50
2022-11-29T07:04:34.622Z,0.50
2022-11-29T07:07:01.676Z,0.40
2022-11-29T07:09:34.644Z,0.50
2022-11-29T07:12:01.688Z,0.50
2022-11-29T07:14:28.702Z,0.50
2022-11-29T07:17:08.022Z,0.50
2022-11-29T07:20:02.151Z,0.50
2022-11-29T07:22:45.081Z,0.50
2022-11-29T07:25:25.272Z,0.60
2022-11-29T07:28:19.470Z,0.50
2022-11-29T07:31:08.630Z,0.50
2022-11-29T07:33:50.137Z,0.60
2022-11-29T07:36:26.528Z,0.60
2022-11-29T07:39:11.033Z,0.60
2022-11-29T07:42:05.255Z,0.60
2022-11-29T07:44:50.466Z,0.60
2022-11-29T07:47:17.196Z,0.70
2022-11-29T07:49:43.842Z,0.70
2022-11-29T07:52:16.154Z,0.70
2022-11-29T07:54:43.440Z,0.70
2022-11-29T07:57:10.407Z,0.70
2022-11-29T07:59:37.051Z,0.70
2022-11-29T08:02:10.173Z,0.60
2022-11-29T08:04:46.875Z,0.60
2022-11-29T08:07:13.779Z,0.70
2022-11-29T08:09:40.450Z,0.60
2022-11-29T08:12:07.244Z,0.60
2022-11-29T08:14:33.877Z,0.60
2022-11-29T08:17:00.777Z,0.70
2022-11-29T08:19:27.476Z,0.70
2022-11-29T08:21:54.155Z,0.70
2022-11-29T08:24:27.558Z,0.70
2022-11-29T08:26:54.307Z,0.80
2022-11-29T08:29:20.981Z,0.80
2022-11-29T08:31:53.492Z,0.80
2022-11-29T08:34:21.452Z,0.80
2022-11-29T08:36:48.370Z,0.80
2022-11-29T08:39:15.337Z,0.80
2022-11-29T08:41:42.300Z,0.80
2022-11-29T08:44:09.125Z,0.80
2022-11-29T08:46:54.821Z,0.90
2022-11-29T08:49:21.468Z,0.80
2022-11-29T08:51:48.092Z,0.90
2022-11-29T08:54:14.942Z,0.90
2022-11-29T08:57:23.633Z,0.90
2022-11-29T08:59:29.425Z,1.00
2022-11-29T09:01:56.112Z,0.90
2022-11-29T09:04:22.831Z,0.90
2022-11-29T09:06:50.434Z,0.90
2022-11-29T09:09:17.749Z,0.90
2022-11-29T09:11:49.106Z,0.90
2022-11-29T09:14:17.291Z,0.90
2022-11-29T09:16:43.961Z,0.80
2022-11-29T09:19:13.392Z,0.80
2022-11-29T09:21:40.330Z,0.80
2022-11-29T09:24:07.971Z,0.80
2022-11-29T09:26:36.976Z,0.80
2022-11-29T09:29:05.685Z,0.90
2022-11-29T09:31:33.793Z,0.90
2022-11-29T09:34:00.778Z,0.90
2022-11-29T09:36:30.002Z,0.90
2022-11-29T09:39:02.776Z,0.90
2022-11-29T09:41:59.115Z,0.90
2022-11-29T09:44:50.207Z,0.90
2022-11-29T09:47:52.070Z,1.00
2022-11-29T09:50:26.403Z,1.00
2022-11-29T09:53:09.154Z,1.00
2022-11-29T09:55:42.969Z,1.00
2022-11-29T09:58:16.919Z,1.00
2022-11-29T10:00:52.351Z,1.00
2022-11-29T10:03:25.625Z,1.00
2022-11-29T10:06:16.039Z,1.00
2022-11-29T10:08:52.012Z,1.00
2022-11-29T10:11:43.881Z,1.10
2022-11-29T10:14:18.281Z,1.10
2022-11-29T10:16:47.745Z,1.10
2022-11-29T10:19:25.285Z,1.20
2022-11-29T10:22:15.300Z,1.10
2022-11-29T10:24:46.261Z,1.10
2022-11-29T10:27:20.093Z,1.10
2022-11-29T10:29:50.212Z,1.10
2022-11-29T10:32:21.399Z,1.10
2022-11-29T10:34:49.559Z,1.10
2022-11-29T10:37:21.602Z,1.10
2022-11-29T10:39:57.298Z,1.10
2022-11-29T10:42:53.048Z,1.10
2022-11-29T10:45:40.500Z,1.10
2022-11-29T10:48:12.656Z,1.10
2022-11-29T10:50:42.811Z,1.10
2022-11-29T10:53:15.578Z,1.10
2022-11-29T10:55:53.608Z,1.10
2022-11-29T10:58:29.138Z,1.20
2022-11-29T11:01:06.614Z,1.20
2022-11-29T11:03:45.084Z,1.20
2022-11-29T11:06:19.957Z,1.20
2022-11-29T11:08:53.037Z,1.30
2022-11-29T11:11:29.085Z,1.30
2022-11-29T11:14:05.046Z,1.30
2022-11-29T11:16:37.122Z,1.30
2022-11-29T11:19:27.892Z,1.30
2022-11-29T11:22:21.999Z,1.30
2022-11-29T11:24:58.099Z,1.20
2022-11-29T11:27:40.207Z,1.20
2022-11-29T11:30:20.165Z,1.30
2022-11-29T11:33:19.442Z,1.20
2022-11-29T11:36:07.114Z,1.20
2022-11-29T11:38:39.596Z,1.20
2022-11-29T11:41:48.127Z,1.20
2022-11-29T11:44:48.765Z,1.30
2022-11-29T11:47:21.490Z,1.30
2022-11-29T11:49:54.717Z,1.30
2022-11-29T11:52:23.082Z,1.40
2022-11-29T11:54:57.391Z,1.40
2022-11-29T11:57:25.822Z,1.30
2022-11-29T11:59:55.101Z,1.30
2022-11-29T12:02:40.970Z,1.30
2022-11-29T12:05:16.067Z,1.30
2022-11-29T12:08:08.378Z,1.30
2022-11-29T12:10:40.577Z,1.30
2022-11-29T12:13:18.190Z,1.20
2022-11-29T12:15:49.768Z,1.30
2022-11-29T12:18:38.058Z,1.30
2022-11-29T12:21:17.646Z,1.30
2022-11-29T12:23:53.277Z,1.30
2022-11-29T12:26:57.680Z,1.30
2022-11-29T12:29:29.766Z,1.30
2022-11-29T12:32:21.760Z,1.30
2022-11-29T12:35:06.223Z,1.40
2022-11-29T12:38:07.412Z,1.30
2022-11-29T12:40:54.124Z,1.30
2022-11-29T12:43:29.849Z,1.30
2022-11-29T12:46:26.009Z,1.30
2022-11-29T12:49:11.242Z,1.30
2022-11-29T12:51:43.912Z,1.30
2022-11-29T12:54:43.854Z,1.40
2022-11-29T12:57:22.422Z,1.40
2022-11-29T13:00:09.573Z,1.40
2022-11-29T13:02:43.038Z,1.30
2022-11-29T13:05:36.352Z,1.30
2022-11-29T13:08:32.348Z,1.30
2022-11-29T13:11:20.606Z,1.30
2022-11-29T13:14:03.789Z,1.20
2022-11-29T13:17:05.374Z,1.20
2022-11-29T13:20:04.140Z,1.20
2022-11-29T13:22:48.104Z,1.10
2022-11-29T13:25:23.769Z,1.10
2022-11-29T13:28:01.629Z,1.10
2022-11-29T13:30:28.391Z,1.10
2022-11-29T13:33:13.121Z,1.10
2022-11-29T13:36:05.894Z,1.10
2022-11-29T13:38:56.955Z,1.10
2022-11-29T13:41:50.782Z,1.00
2022-11-29T13:44:31.036Z,1.00
2022-11-29T13:47:08.825Z,1.00
2022-11-29T13:50:02.751Z,1.00
2022-11-29T13:52:42.962Z,1.00
2022-11-29T13:55:12.737Z,1.00
2022-11-29T13:58:16.343Z,1.00
2022-11-29T14:00:44.266Z,1.10
2022-11-29T14:03:33.534Z,1.10
2022-11-29T14:06:23.518Z,1.00
2022-11-29T14:09:17.892Z,1.00
2022-11-29T14:11:42.566Z,0.90
2022-11-29T14:14:47.040Z,0.90
2022-11-29T14:17:45.350Z,0.90
2022-11-29T14:20:28.405Z,0.80
2022-11-29T14:23:04.163Z,0.80
2022-11-29T14:25:54.080Z,0.80
2022-11-29T14:28:20.736Z,0.80
2022-11-29T14:30:51.935Z,0.80
2022-11-29T14:33:46.743Z,0.80
2022-11-29T14:36:19.191Z,0.90
2022-11-29T14:39:24.076Z,0.80
2022-11-29T14:42:14.575Z,0.80
2022-11-29T14:45:06.270Z,0.80
2022-11-29T14:47:37.193Z,0.80
2022-11-29T14:50:09.166Z,0.70
2022-11-29T14:52:40.767Z,0.70
2022-11-29T14:55:29.560Z,0.70
2022-11-29T14:58:03.695Z,0.70
2022-11-29T15:00:47.308Z,0.60
2022-11-29T15:03:19.752Z,0.60
2022-11-29T15:05:59.887Z,0.60
2022-11-29T15:08:52.222Z,0.60
2022-11-29T15:11:41.301Z,0.60
2022-11-29T15:14:35.607Z,0.50
2022-11-29T15:17:05.229Z,0.50
2022-11-29T15:19:50.595Z,0.50
2022-11-29T15:22:17.266Z,0.50
2022-11-29T15:24:57.268Z,0.50
2022-11-29T15:27:24.656Z,0.50
2022-11-29T15:29:52.712Z,0.50
2022-11-29T15:32:32.528Z,0.50
2022-11-29T15:34:59.797Z,0.50
2022-11-29T15:37:45.340Z,0.50
2022-11-29T15:40:20.023Z,0.50
2022-11-29T15:42:52.718Z,0.50
2022-11-29T15:45:36.794Z,0.50
2022-11-29T15:48:22.426Z,0.40
2022-11-29T15:51:06.054Z,0.40
2022-11-29T15:53:41.219Z,0.40
2022-11-29T15:56:42.632Z,0.40
2022-11-29T15:59:21.934Z,0.40
2022-11-29T16:01:52.512Z,0.40
2022-11-29T16:04:21.467Z,0.30
2022-11-29T16:06:50.166Z,0.30
2022-11-29T16:09:20.955Z,0.40
2022-11-29T16:11:48.772Z,0.40
2022-11-29T16:14:22.603Z,0.40
2022-11-29T16:16:54.997Z,0.40
2022-11-29T16:19:32.817Z,0.30
2022-11-29T16:22:12.215Z,0.40
2022-11-29T16:24:53.813Z,0.40
2022-11-29T16:27:22.199Z,0.40
2022-11-29T16:29:50.143Z,0.30
2022-11-29T16:32:30.599Z,0.40
2022-11-29T16:35:12.398Z,0.40
2022-11-29T16:37:42.033Z,0.40
2022-11-29T16:40:24.551Z,0.40
2022-11-29T16:43:03.476Z,0.30
2022-11-29T16:45:35.009Z,0.30
2022-11-29T16:48:02.985Z,0.30
2022-11-29T16:50:31.423Z,0.30
2022-11-29T16:53:38.332Z,0.30
2022-11-29T16:56:06.483Z,0.30
2022-11-29T16:58:37.490Z,0.30
2022-11-29T17:01:23.698Z,0.30
2022-11-29T17:03:50.729Z,0.30
2022-11-29T17:06:49.254Z,0.20
2022-11-29T17:19:52.344Z,0.40
2022-11-29T17:22:53.720Z,0.30
2022-11-29T17:26:18.529Z,0.30
2022-11-29T17:28:55.442Z,0.30
2022-11-29T17:31:29.707Z,0.30
2022-11-29T17:34:03.021Z,0.20
2022-11-29T17:40:11.497Z,0.30
2022-11-29T17:49:47.062Z,0.20
2022-11-29T17:56:25.457Z,0.10
2022-11-29T17:58:57.604Z,0.20
2022-11-29T18:01:28.066Z,0.10
2022-11-29T18:03:57.725Z,0.10
2022-11-29T18:06:36.365Z,0.10
2022-11-29T18:09:04.973Z,0.10
2022-11-29T18:11:42.944Z,0.00
2022-11-29T18:14:15.881Z,0.00
2022-11-29T18:16:43.042Z,0.00
2022-11-29T18:19:13.857Z,0.10
2022-11-29T18:21:42.409Z,0.10
2022-11-29T18:24:10.188Z,0.10
2022-11-29T18:26:37.847Z,0.10
2022-11-29T18:29:06.217Z,0.10
2022-11-29T18:31:38.580Z,0.10
2022-11-29T18:34:09.674Z,0.10
2022-11-29T18:36:39.214Z,0.20
2022-11-29T18:39:11.336Z,0.10
2022-11-29T18:41:38.456Z,0.10
2022-11-29T18:44:52.614Z,0.10
2022-11-29T18:47:21.720Z,0.10
2022-11-29T18:49:57.093Z,0.10
2022-11-29T18:56:22.464Z,0.00
2022-11-29T18:59:25.366Z,-0.10
2022-11-29T19:02:38.981Z,0.00
2022-11-29T19:05:00.580Z,0.00
2022-11-29T19:07:40.010Z,0.10
2022-11-29T19:10:13.847Z,0.00
2022-11-29T19:12:40.825Z,0.00
2022-11-29T19:25:15.149Z,0.00
2022-11-29T19:40:32.588Z,-0.10
2022-11-29T19:43:25.657Z,-0.10
2022-11-29T19:46:11.498Z,-0.10
2022-11-29T19:48:38.979Z,-0.10
2022-11-29T19:51:33.854Z,-0.10
2022-11-29T19:54:13.827Z,-0.20
2022-11-29T19:56:43.523Z,-0.20
2022-11-29T19:59:18.764Z,-0.20
2022-11-29T20:01:51.427Z,-0.20
2022-11-29T20:04:38.126Z,-0.10
2022-11-29T20:07:04.785Z,-0.10
2022-11-29T20:09:59.955Z,-0.20
2022-11-29T20:12:45.069Z,-0.20
2022-11-29T20:15:11.760Z,-0.10
2022-11-29T20:17:38.439Z,-0.10
2022-11-29T20:20:05.783Z,-0.10
2022-11-29T20:22:32.442Z,-0.10
2022-11-29T20:24:59.179Z,-0.10
2022-11-29T20:27:25.969Z,-0.10
2022-11-29T20:29:53.878Z,-0.20
2022-11-29T20:32:20.646Z,-0.10
2022-11-29T20:34:47.739Z,-0.10
2022-11-29T20:37:30.551Z,-0.10
2022-11-29T20:40:06.182Z,-0.10
2022-11-29T20:43:27.047Z,-0.10
2022-11-29T20:45:53.893Z,-0.10
2022-11-29T20:48:22.615Z,-0.10
2022-11-29T20:50:59.026Z,-0.10
2022-11-29T20:53:39.259Z,-0.10
2022-11-29T20:56:07.496Z,-0.10
2022-11-29T20:58:34.431Z,-0.10
2022-11-29T21:01:01.461Z,-0.10
2022-11-29T21:03:29.007Z,-0.10
2022-11-29T21:05:56.938Z,-0.10
2022-11-29T21:08:26.692Z,-0.10
2022-11-29T21:10:53.865Z,-0.10
2022-11-29T21:13:22.782Z,0.00
2022-11-29T21:15:50.387Z,-0.10
2022-11-29T21:18:24.014Z,-0.10
2022-11-29T21:21:06.367Z,-0.10
2022-11-29T21:23:46.222Z,-0.10
2022-11-29T21:27:01.666Z,-0.10
2022-11-29T21:30:33.145Z,-0.10
2022-11-29T21:33:12.102Z,-0.10
2022-11-29T21:36:02.167Z,0.00
2022-11-29T21:38:36.796Z,0.00
2022-11-29T21:41:13.608Z,-0.10
2022-11-29T21:44:06.741Z,-0.10
2022-11-29T21:46:36.139Z,-0.10
2022-11-29T21:52:11.088Z,-0.10
2022-11-29T21:54:42.776Z,0.00
2022-11-29T21:57:14.071Z,-0.10
2022-11-29T21:59:44.858Z,0.00
2022-11-29T22:02:28.923Z,0.00
2022-11-29T22:05:00.216Z,-0.10
2022-11-29T22:07:27.617Z,-0.10
2022-11-29T22:09:54.361Z,-0.10
2022-11-29T22:12:34.336Z,-0.20
2022-11-29T22:15:24.751Z,-0.20
2022-11-29T22:18:09.023Z,-0.20
2022-11-29T22:23:29.753Z,-0.20
2022-11-29T22:26:07.699Z,-0.20
2022-11-29T22:28:41.880Z,-0.20
2022-11-29T22:31:24.515Z,-0.20
2022-11-29T22:33:54.618Z,-0.30
2022-11-29T22:36:36.579Z,-0.20
2022-11-29T22:39:04.146Z,-0.20
2022-11-29T22:41:33.630Z,-0.30
2022-11-29T22:44:00.632Z,-0.30
2022-11-29T22:46:29.313Z,-0.30
2022-11-29T22:49:00.668Z,-0.30
2022-11-29T22:51:36.915Z,-0.20
2022-11-29T22:54:12.503Z,-0.20
2022-11-29T22:56:41.051Z,-0.30
2022-11-29T22:59:12.677Z,-0.30
2022-11-29T23:01:44.609Z,-0.30
2022-11-29T23:04:12.267Z,-0.30
2022-11-29T23:06:59.625Z,-0.30
2022-11-29T23:09:28.569Z,-0.30
2022-11-29T23:12:31.112Z,-0.20
2022-11-29T23:14:58.048Z,-0.20
2022-11-29T23:17:27.121Z,-0.30
2022-11-29T23:19:54.110Z,-0.30
2022-11-29T23:22:23.934Z,-0.30
2022-11-29T23:27:31.301Z,-0.40
2022-11-29T23:29:57.953Z,-0.40
2022-11-29T23:32:35.758Z,-0.40
2022-11-29T23:35:03.246Z,-0.40
2022-11-29T23:37:33.030Z,-0.40
2022-11-29T23:39:59.657Z,-0.40
2022-11-29T23:42:26.418Z,-0.40
2022-11-29T23:44:53.086Z,-0.40
2022-11-29T23:47:19.746Z,-0.40
2022-11-29T23:49:46.385Z,-0.30
2022-11-29T23:52:13.127Z,-0.30
2022-11-29T23:54:39.790Z,-0.30
2022-11-29T23:57:06.439Z,-0.30
2022-11-29T23:59:33.238Z,-0.30
